Main page
METAR-TAF:

METAR-TAF

Airports :

Pirassununga, São Paulo, Brazil

latitude: 21-59S, longitude: 047-20W, elevation: 597 m

Current weather observation

The report was made 1 hour and 20 minutes ago, at 02:00 UTC
Wind 2 kt from the Southwest
Temperature 19°C
Humidity 100%
Pressure 1015 hPa
Visibility 10 km or more
no clouds below 1500 m and no cumulonimbus

METAR: SBYS 180200Z 22002KT CAVOK 19/19 Q1015

Time: 00:20 (03:20 UTC)

Forecast

The report was made 5 hours and 20 minutes ago, at 22:00 UTC
Forecast valid from 18 at 00 UTC to 18 at 12 UTC
Wind 5 kt from the North/Northwest
Visibility 10 km or more
no clouds below 1500 m and no cumulonimbus
Becoming
from 18 at 08 UTC to 18 at 10 UTC
Scattered clouds at a height of 1500 ft

TAF: SBYS 172200Z 1800/1812 34005KT CAVOK TX23/1800Z TN18/1808Z BECMG 1808/1810 SCT015 RMK PEJ

Weather observations and forecasts of more than 4000 airports (METAR and TAF reports).

The available stations are represented by yellow and red dots on the map.

Hover mouse over dot to see the name of the station.

Then click to see weather observations and forecasts.

To change the map : click on the green buttons with a black cross to zoom in, on the green button with a dash to zoom out, or on the green arrows for adjacent maps.


METAR-TAF: